sensor_id;sensor_type;location;lat;lon;timestamp;P1;durP1;ratioP1;P2;durP2;ratioP2
16391;SDS011;8305;-33.882;151.134;2023-06-14T00:01:58;1.20;;;0.60;;
16391;SDS011;8305;-33.882;151.134;2023-06-14T00:04:31;1.70;;;0.77;;
16391;SDS011;8305;-33.882;151.134;2023-06-14T00:07:06;2.85;;;1.20;;
16391;SDS011;8305;-33.882;151.134;2023-06-14T00:09:39;2.20;;;0.70;;
16391;SDS011;8305;-33.882;151.134;2023-06-14T00:12:11;1.48;;;0.60;;
16391;SDS011;8305;-33.882;151.134;2023-06-14T00:14:42;1.92;;;0.50;;
16391;SDS011;8305;-33.882;151.134;2023-06-14T00:17:13;1.85;;;0.60;;
16391;SDS011;8305;-33.882;151.134;2023-06-14T00:19:46;1.38;;;0.52;;
16391;SDS011;8305;-33.882;151.134;2023-06-14T00:22:18;2.30;;;0.50;;
16391;SDS011;8305;-33.882;151.134;2023-06-14T00:24:50;1.92;;;0.55;;
16391;SDS011;8305;-33.882;151.134;2023-06-14T00:27:22;0.93;;;0.50;;
16391;SDS011;8305;-33.882;151.134;2023-06-14T00:29:53;3.42;;;0.70;;
16391;SDS011;8305;-33.882;151.134;2023-06-14T00:32:24;2.00;;;0.40;;
16391;SDS011;8305;-33.882;151.134;2023-06-14T00:34:57;0.77;;;0.60;;
16391;SDS011;8305;-33.882;151.134;2023-06-14T00:37:29;0.75;;;0.40;;
16391;SDS011;8305;-33.882;151.134;2023-06-14T00:40:00;0.80;;;0.50;;
16391;SDS011;8305;-33.882;151.134;2023-06-14T00:42:31;1.65;;;0.45;;
16391;SDS011;8305;-33.882;151.134;2023-06-14T00:45:02;2.60;;;0.52;;
16391;SDS011;8305;-33.882;151.134;2023-06-14T00:47:34;1.92;;;0.40;;
16391;SDS011;8305;-33.882;151.134;2023-06-14T00:50:09;2.30;;;0.40;;
16391;SDS011;8305;-33.882;151.134;2023-06-14T00:52:41;2.03;;;0.50;;
16391;SDS011;8305;-33.882;151.134;2023-06-14T00:55:12;0.70;;;0.30;;
16391;SDS011;8305;-33.882;151.134;2023-06-14T00:57:43;0.43;;;0.22;;
16391;SDS011;8305;-33.882;151.134;2023-06-14T01:00:15;1.40;;;0.50;;
16391;SDS011;8305;-33.882;151.134;2023-06-14T01:02:47;1.42;;;0.47;;
16391;SDS011;8305;-33.882;151.134;2023-06-14T01:05:20;0.73;;;0.40;;
16391;SDS011;8305;-33.882;151.134;2023-06-14T01:07:54;0.60;;;0.35;;
16391;SDS011;8305;-33.882;151.134;2023-06-14T01:10:37;2.67;;;0.43;;
16391;SDS011;8305;-33.882;151.134;2023-06-14T01:13:20;3.55;;;0.40;;
16391;SDS011;8305;-33.882;151.134;2023-06-14T01:15:53;0.70;;;0.32;;
16391;SDS011;8305;-33.882;151.134;2023-06-14T01:18:25;0.57;;;0.40;;
16391;SDS011;8305;-33.882;151.134;2023-06-14T01:21:00;0.60;;;0.35;;
16391;SDS011;8305;-33.882;151.134;2023-06-14T01:23:34;2.05;;;0.40;;
16391;SDS011;8305;-33.882;151.134;2023-06-14T01:26:06;2.38;;;0.40;;
16391;SDS011;8305;-33.882;151.134;2023-06-14T01:28:37;0.43;;;0.40;;
16391;SDS011;8305;-33.882;151.134;2023-06-14T01:31:08;1.15;;;0.35;;
16391;SDS011;8305;-33.882;151.134;2023-06-14T01:33:42;1.00;;;0.30;;
16391;SDS011;8305;-33.882;151.134;2023-06-14T01:36:14;0.85;;;0.38;;
16391;SDS011;8305;-33.882;151.134;2023-06-14T01:38:49;2.53;;;1.42;;
16391;SDS011;8305;-33.882;151.134;2023-06-14T01:41:22;1.20;;;0.40;;
16391;SDS011;8305;-33.882;151.134;2023-06-14T01:43:54;3.75;;;0.50;;
16391;SDS011;8305;-33.882;151.134;2023-06-14T01:46:25;4.95;;;0.55;;
16391;SDS011;8305;-33.882;151.134;2023-06-14T01:48:57;2.28;;;0.40;;
16391;SDS011;8305;-33.882;151.134;2023-06-14T01:51:28;2.03;;;0.55;;
16391;SDS011;8305;-33.882;151.134;2023-06-14T01:54:01;1.02;;;0.25;;
16391;SDS011;8305;-33.882;151.134;2023-06-14T01:56:32;2.88;;;0.50;;
16391;SDS011;8305;-33.882;151.134;2023-06-14T01:59:03;1.00;;;0.43;;
16391;SDS011;8305;-33.882;151.134;2023-06-14T02:01:35;1.88;;;0.40;;
16391;SDS011;8305;-33.882;151.134;2023-06-14T02:04:06;1.48;;;0.50;;
16391;SDS011;8305;-33.882;151.134;2023-06-14T02:06:38;3.25;;;0.40;;
16391;SDS011;8305;-33.882;151.134;2023-06-14T02:09:11;2.47;;;0.30;;
16391;SDS011;8305;-33.882;151.134;2023-06-14T02:11:42;0.70;;;0.30;;
16391;SDS011;8305;-33.882;151.134;2023-06-14T02:14:13;2.83;;;0.35;;
16391;SDS011;8305;-33.882;151.134;2023-06-14T02:16:44;1.98;;;0.30;;
16391;SDS011;8305;-33.882;151.134;2023-06-14T02:19:17;1.30;;;0.40;;
16391;SDS011;8305;-33.882;151.134;2023-06-14T02:21:49;0.63;;;0.30;;
16391;SDS011;8305;-33.882;151.134;2023-06-14T02:24:22;2.95;;;0.47;;
16391;SDS011;8305;-33.882;151.134;2023-06-14T02:26:54;0.75;;;0.30;;
16391;SDS011;8305;-33.882;151.134;2023-06-14T02:29:25;1.95;;;0.40;;
16391;SDS011;8305;-33.882;151.134;2023-06-14T02:31:56;1.52;;;0.50;;
16391;SDS011;8305;-33.882;151.134;2023-06-14T02:34:27;1.60;;;0.30;;
16391;SDS011;8305;-33.882;151.134;2023-06-14T02:36:59;1.77;;;0.40;;
16391;SDS011;8305;-33.882;151.134;2023-06-14T02:39:33;1.45;;;0.50;;
16391;SDS011;8305;-33.882;151.134;2023-06-14T02:42:04;1.05;;;0.40;;
16391;SDS011;8305;-33.882;151.134;2023-06-14T02:44:36;2.03;;;0.50;;
16391;SDS011;8305;-33.882;151.134;2023-06-14T02:47:07;0.80;;;0.30;;
16391;SDS011;8305;-33.882;151.134;2023-06-14T02:49:39;3.03;;;0.30;;
16391;SDS011;8305;-33.882;151.134;2023-06-14T02:52:10;2.58;;;0.50;;
16391;SDS011;8305;-33.882;151.134;2023-06-14T02:54:43;1.00;;;0.30;;
16391;SDS011;8305;-33.882;151.134;2023-06-14T02:57:14;1.50;;;0.30;;
16391;SDS011;8305;-33.882;151.134;2023-06-14T02:59:45;0.70;;;0.40;;
16391;SDS011;8305;-33.882;151.134;2023-06-14T03:02:16;1.65;;;0.45;;
16391;SDS011;8305;-33.882;151.134;2023-06-14T03:04:48;1.92;;;0.50;;
16391;SDS011;8305;-33.882;151.134;2023-06-14T03:07:19;1.40;;;0.32;;
16391;SDS011;8305;-33.882;151.134;2023-06-14T03:09:53;1.67;;;0.50;;
16391;SDS011;8305;-33.882;151.134;2023-06-14T03:12:24;1.40;;;0.40;;
16391;SDS011;8305;-33.882;151.134;2023-06-14T03:14:56;1.00;;;0.30;;
16391;SDS011;8305;-33.882;151.134;2023-06-14T03:17:28;2.22;;;0.40;;
16391;SDS011;8305;-33.882;151.134;2023-06-14T03:19:59;1.13;;;0.40;;
16391;SDS011;8305;-33.882;151.134;2023-06-14T03:22:32;1.95;;;0.30;;
16391;SDS011;8305;-33.882;151.134;2023-06-14T03:25:06;1.25;;;0.30;;
16391;SDS011;8305;-33.882;151.134;2023-06-14T03:27:37;1.85;;;0.32;;
16391;SDS011;8305;-33.882;151.134;2023-06-14T03:30:09;2.78;;;0.60;;
16391;SDS011;8305;-33.882;151.134;2023-06-14T03:32:40;0.80;;;0.30;;
16391;SDS011;8305;-33.882;151.134;2023-06-14T03:35:11;0.95;;;0.40;;
16391;SDS011;8305;-33.882;151.134;2023-06-14T03:37:44;0.93;;;0.40;;
16391;SDS011;8305;-33.882;151.134;2023-06-14T03:40:17;1.65;;;0.50;;
16391;SDS011;8305;-33.882;151.134;2023-06-14T03:42:53;0.73;;;0.60;;
16391;SDS011;8305;-33.882;151.134;2023-06-14T03:45:24;1.73;;;0.30;;
16391;SDS011;8305;-33.882;151.134;2023-06-14T03:47:55;3.05;;;0.68;;
16391;SDS011;8305;-33.882;151.134;2023-06-14T03:50:26;2.30;;;0.47;;
16391;SDS011;8305;-33.882;151.134;2023-06-14T03:52:58;0.95;;;0.20;;
16391;SDS011;8305;-33.882;151.134;2023-06-14T03:55:31;1.27;;;0.40;;
16391;SDS011;8305;-33.882;151.134;2023-06-14T03:58:04;1.10;;;0.40;;
16391;SDS011;8305;-33.882;151.134;2023-06-14T04:00:35;1.73;;;0.50;;
16391;SDS011;8305;-33.882;151.134;2023-06-14T04:03:06;2.03;;;0.40;;
16391;SDS011;8305;-33.882;151.134;2023-06-14T04:05:39;1.73;;;0.40;;
16391;SDS011;8305;-33.882;151.134;2023-06-14T04:08:10;0.60;;;0.28;;
16391;SDS011;8305;-33.882;151.134;2023-06-14T04:10:44;1.20;;;0.50;;
16391;SDS011;8305;-33.882;151.134;2023-06-14T04:13:15;1.83;;;0.50;;
16391;SDS011;8305;-33.882;151.134;2023-06-14T04:15:46;1.48;;;0.40;;
16391;SDS011;8305;-33.882;151.134;2023-06-14T04:18:18;1.73;;;0.50;;
16391;SDS011;8305;-33.882;151.134;2023-06-14T04:20:50;0.80;;;0.43;;
16391;SDS011;8305;-33.882;151.134;2023-06-14T04:23:22;0.57;;;0.25;;
16391;SDS011;8305;-33.882;151.134;2023-06-14T04:25:56;1.90;;;0.50;;
16391;SDS011;8305;-33.882;151.134;2023-06-14T04:28:28;2.75;;;0.45;;
16391;SDS011;8305;-33.882;151.134;2023-06-14T04:31:03;1.55;;;0.50;;
16391;SDS011;8305;-33.882;151.134;2023-06-14T04:33:36;1.17;;;0.40;;
16391;SDS011;8305;-33.882;151.134;2023-06-14T04:36:10;1.17;;;0.65;;
16391;SDS011;8305;-33.882;151.134;2023-06-14T04:38:43;1.60;;;0.35;;
16391;SDS011;8305;-33.882;151.134;2023-06-14T04:41:17;1.92;;;0.30;;
16391;SDS011;8305;-33.882;151.134;2023-06-14T04:43:49;1.50;;;0.35;;
16391;SDS011;8305;-33.882;151.134;2023-06-14T04:46:20;1.33;;;0.50;;
16391;SDS011;8305;-33.882;151.134;2023-06-14T04:48:51;1.85;;;0.50;;
16391;SDS011;8305;-33.882;151.134;2023-06-14T04:51:22;2.63;;;0.60;;
16391;SDS011;8305;-33.882;151.134;2023-06-14T04:53:56;2.13;;;0.60;;
16391;SDS011;8305;-33.882;151.134;2023-06-14T04:56:29;0.60;;;0.40;;
16391;SDS011;8305;-33.882;151.134;2023-06-14T04:59:01;0.88;;;0.30;;
16391;SDS011;8305;-33.882;151.134;2023-06-14T05:01:32;2.22;;;0.50;;
16391;SDS011;8305;-33.882;151.134;2023-06-14T05:04:04;1.77;;;0.47;;
16391;SDS011;8305;-33.882;151.134;2023-06-14T05:06:35;2.28;;;0.40;;
16391;SDS011;8305;-33.882;151.134;2023-06-14T05:09:06;2.58;;;0.43;;
16391;SDS011;8305;-33.882;151.134;2023-06-14T05:11:39;1.38;;;0.40;;
16391;SDS011;8305;-33.882;151.134;2023-06-14T05:14:10;0.82;;;0.32;;
16391;SDS011;8305;-33.882;151.134;2023-06-14T05:16:42;2.20;;;0.55;;
16391;SDS011;8305;-33.882;151.134;2023-06-14T05:19:15;0.68;;;0.45;;
16391;SDS011;8305;-33.882;151.134;2023-06-14T05:21:47;2.13;;;0.50;;
16391;SDS011;8305;-33.882;151.134;2023-06-14T05:24:18;2.25;;;0.40;;
16391;SDS011;8305;-33.882;151.134;2023-06-14T05:26:52;2.80;;;0.60;;
16391;SDS011;8305;-33.882;151.134;2023-06-14T05:29:23;1.95;;;0.50;;
16391;SDS011;8305;-33.882;151.134;2023-06-14T05:31:54;0.90;;;0.50;;
16391;SDS011;8305;-33.882;151.134;2023-06-14T05:34:25;3.95;;;0.88;;
16391;SDS011;8305;-33.882;151.134;2023-06-14T05:36:56;1.95;;;0.50;;
16391;SDS011;8305;-33.882;151.134;2023-06-14T05:39:27;1.23;;;0.57;;
16391;SDS011;8305;-33.882;151.134;2023-06-14T05:42:01;2.08;;;0.40;;
16391;SDS011;8305;-33.882;151.134;2023-06-14T05:44:32;2.53;;;0.40;;
16391;SDS011;8305;-33.882;151.134;2023-06-14T05:47:03;2.05;;;0.50;;
16391;SDS011;8305;-33.882;151.134;2023-06-14T05:49:35;2.85;;;0.40;;
16391;SDS011;8305;-33.882;151.134;2023-06-14T05:52:06;0.95;;;0.32;;
16391;SDS011;8305;-33.882;151.134;2023-06-14T05:54:39;2.45;;;0.60;;
16391;SDS011;8305;-33.882;151.134;2023-06-14T05:57:12;6.53;;;0.65;;
16391;SDS011;8305;-33.882;151.134;2023-06-14T05:59:43;2.00;;;0.50;;
16391;SDS011;8305;-33.882;151.134;2023-06-14T06:02:14;2.45;;;0.50;;
16391;SDS011;8305;-33.882;151.134;2023-06-14T06:04:46;0.60;;;0.30;;
16391;SDS011;8305;-33.882;151.134;2023-06-14T06:07:17;1.50;;;0.47;;
16391;SDS011;8305;-33.882;151.134;2023-06-14T06:09:48;1.50;;;0.50;;
16391;SDS011;8305;-33.882;151.134;2023-06-14T06:12:21;0.70;;;0.32;;
16391;SDS011;8305;-33.882;151.134;2023-06-14T06:14:52;1.50;;;0.45;;
16391;SDS011;8305;-33.882;151.134;2023-06-14T06:17:24;1.23;;;0.47;;
16391;SDS011;8305;-33.882;151.134;2023-06-14T06:19:55;2.00;;;0.60;;
16391;SDS011;8305;-33.882;151.134;2023-06-14T06:22:26;2.05;;;0.50;;
16391;SDS011;8305;-33.882;151.134;2023-06-14T06:24:57;3.28;;;0.60;;
16391;SDS011;8305;-33.882;151.134;2023-06-14T06:27:30;0.85;;;0.40;;
16391;SDS011;8305;-33.882;151.134;2023-06-14T06:30:02;1.50;;;0.77;;
16391;SDS011;8305;-33.882;151.134;2023-06-14T06:32:34;2.25;;;0.50;;
16391;SDS011;8305;-33.882;151.134;2023-06-14T06:35:05;1.20;;;0.50;;
16391;SDS011;8305;-33.882;151.134;2023-06-14T06:37:37;3.15;;;0.68;;
16391;SDS011;8305;-33.882;151.134;2023-06-14T06:40:08;1.30;;;0.68;;
16391;SDS011;8305;-33.882;151.134;2023-06-14T06:42:41;1.73;;;0.77;;
16391;SDS011;8305;-33.882;151.134;2023-06-14T06:45:12;1.40;;;0.70;;
16391;SDS011;8305;-33.882;151.134;2023-06-14T06:47:43;1.42;;;0.60;;
16391;SDS011;8305;-33.882;151.134;2023-06-14T06:50:14;2.28;;;0.63;;
16391;SDS011;8305;-33.882;151.134;2023-06-14T06:52:49;2.67;;;0.63;;
16391;SDS011;8305;-33.882;151.134;2023-06-14T06:55:20;2.40;;;0.50;;
16391;SDS011;8305;-33.882;151.134;2023-06-14T06:57:53;0.98;;;0.57;;
16391;SDS011;8305;-33.882;151.134;2023-06-14T07:00:26;1.80;;;0.50;;
16391;SDS011;8305;-33.882;151.134;2023-06-14T07:02:57;1.58;;;0.65;;
16391;SDS011;8305;-33.882;151.134;2023-06-14T07:05:30;2.25;;;0.52;;
16391;SDS011;8305;-33.882;151.134;2023-06-14T07:08:01;1.58;;;0.40;;
16391;SDS011;8305;-33.882;151.134;2023-06-14T07:10:32;3.55;;;0.60;;
16391;SDS011;8305;-33.882;151.134;2023-06-14T07:13:05;1.35;;;0.60;;
16391;SDS011;8305;-33.882;151.134;2023-06-14T07:15:37;3.85;;;0.88;;
16391;SDS011;8305;-33.882;151.134;2023-06-14T07:18:08;4.15;;;0.75;;
16391;SDS011;8305;-33.882;151.134;2023-06-14T07:20:39;2.58;;;0.60;;
16391;SDS011;8305;-33.882;151.134;2023-06-14T07:23:10;1.83;;;0.68;;
16391;SDS011;8305;-33.882;151.134;2023-06-14T07:25:41;2.42;;;0.60;;
16391;SDS011;8305;-33.882;151.134;2023-06-14T07:28:14;2.67;;;0.60;;
16391;SDS011;8305;-33.882;151.134;2023-06-14T07:30:46;1.98;;;0.60;;
16391;SDS011;8305;-33.882;151.134;2023-06-14T07:33:17;1.50;;;0.80;;
16391;SDS011;8305;-33.882;151.134;2023-06-14T07:35:48;3.08;;;0.70;;
16391;SDS011;8305;-33.882;151.134;2023-06-14T07:38:19;2.65;;;0.77;;
16391;SDS011;8305;-33.882;151.134;2023-06-14T07:40:51;0.77;;;0.60;;
16391;SDS011;8305;-33.882;151.134;2023-06-14T07:43:24;1.38;;;0.50;;
16391;SDS011;8305;-33.882;151.134;2023-06-14T07:45:55;2.15;;;0.70;;
16391;SDS011;8305;-33.882;151.134;2023-06-14T07:48:25;1.52;;;0.60;;
16391;SDS011;8305;-33.882;151.134;2023-06-14T07:50:56;2.25;;;0.80;;
16391;SDS011;8305;-33.882;151.134;2023-06-14T07:53:27;1.17;;;0.68;;
16391;SDS011;8305;-33.882;151.134;2023-06-14T07:55:58;2.03;;;0.70;;
16391;SDS011;8305;-33.882;151.134;2023-06-14T07:58:31;1.15;;;0.60;;
16391;SDS011;8305;-33.882;151.134;2023-06-14T08:01:02;2.15;;;0.80;;
16391;SDS011;8305;-33.882;151.134;2023-06-14T08:03:34;2.00;;;0.73;;
16391;SDS011;8305;-33.882;151.134;2023-06-14T08:06:05;0.80;;;0.60;;
16391;SDS011;8305;-33.882;151.134;2023-06-14T08:08:36;1.85;;;0.60;;
16391;SDS011;8305;-33.882;151.134;2023-06-14T08:11:07;1.27;;;0.65;;
16391;SDS011;8305;-33.882;151.134;2023-06-14T08:13:40;2.00;;;0.80;;
16391;SDS011;8305;-33.882;151.134;2023-06-14T08:16:11;1.45;;;0.70;;
16391;SDS011;8305;-33.882;151.134;2023-06-14T08:18:41;1.58;;;0.70;;
16391;SDS011;8305;-33.882;151.134;2023-06-14T08:21:12;2.55;;;0.75;;
16391;SDS011;8305;-33.882;151.134;2023-06-14T08:23:44;2.72;;;1.02;;
16391;SDS011;8305;-33.882;151.134;2023-06-14T08:26:14;1.42;;;0.70;;
16391;SDS011;8305;-33.882;151.134;2023-06-14T08:28:47;2.28;;;0.88;;
16391;SDS011;8305;-33.882;151.134;2023-06-14T08:31:18;1.95;;;0.95;;
16391;SDS011;8305;-33.882;151.134;2023-06-14T08:33:50;2.83;;;0.82;;
16391;SDS011;8305;-33.882;151.134;2023-06-14T08:36:21;3.13;;;1.10;;
16391;SDS011;8305;-33.882;151.134;2023-06-14T08:38:51;1.65;;;0.80;;
16391;SDS011;8305;-33.882;151.134;2023-06-14T08:41:22;2.15;;;0.70;;
16391;SDS011;8305;-33.882;151.134;2023-06-14T08:43:57;4.32;;;1.00;;
16391;SDS011;8305;-33.882;151.134;2023-06-14T08:46:28;2.65;;;0.90;;
16391;SDS011;8305;-33.882;151.134;2023-06-14T08:49:02;2.15;;;0.70;;
16391;SDS011;8305;-33.882;151.134;2023-06-14T08:51:33;2.38;;;0.70;;
16391;SDS011;8305;-33.882;151.134;2023-06-14T08:54:06;2.72;;;1.20;;
16391;SDS011;8305;-33.882;151.134;2023-06-14T08:56:39;3.33;;;1.33;;
16391;SDS011;8305;-33.882;151.134;2023-06-14T08:59:12;2.50;;;1.00;;
16391;SDS011;8305;-33.882;151.134;2023-06-14T09:01:44;6.15;;;1.38;;
16391;SDS011;8305;-33.882;151.134;2023-06-14T09:04:15;4.50;;;1.48;;
16391;SDS011;8305;-33.882;151.134;2023-06-14T09:06:47;2.72;;;1.20;;
16391;SDS011;8305;-33.882;151.134;2023-06-14T09:09:20;3.20;;;1.10;;
16391;SDS011;8305;-33.882;151.134;2023-06-14T09:11:52;3.10;;;1.13;;
16391;SDS011;8305;-33.882;151.134;2023-06-14T09:14:25;2.10;;;0.80;;
16391;SDS011;8305;-33.882;151.134;2023-06-14T09:16:56;2.20;;;0.90;;
16391;SDS011;8305;-33.882;151.134;2023-06-14T09:19:27;1.52;;;0.88;;
16391;SDS011;8305;-33.882;151.134;2023-06-14T09:21:59;3.22;;;0.77;;
16391;SDS011;8305;-33.882;151.134;2023-06-14T09:24:30;1.60;;;0.70;;
16391;SDS011;8305;-33.882;151.134;2023-06-14T09:27:02;1.42;;;0.73;;
16391;SDS011;8305;-33.882;151.134;2023-06-14T09:29:36;1.10;;;0.70;;
16391;SDS011;8305;-33.882;151.134;2023-06-14T09:32:07;2.67;;;0.80;;
16391;SDS011;8305;-33.882;151.134;2023-06-14T09:34:38;2.20;;;0.70;;
16391;SDS011;8305;-33.882;151.134;2023-06-14T09:37:09;2.55;;;1.00;;
16391;SDS011;8305;-33.882;151.134;2023-06-14T09:39:49;1.90;;;0.90;;
16391;SDS011;8305;-33.882;151.134;2023-06-14T09:42:20;2.45;;;1.05;;
16391;SDS011;8305;-33.882;151.134;2023-06-14T09:44:54;2.65;;;1.30;;
16391;SDS011;8305;-33.882;151.134;2023-06-14T09:47:26;3.72;;;1.10;;
16391;SDS011;8305;-33.882;151.134;2023-06-14T09:49:57;2.83;;;1.15;;
16391;SDS011;8305;-33.882;151.134;2023-06-14T09:52:27;2.13;;;1.00;;
16391;SDS011;8305;-33.882;151.134;2023-06-14T09:54:59;2.58;;;1.40;;
16391;SDS011;8305;-33.882;151.134;2023-06-14T09:57:35;1.92;;;1.00;;
16391;SDS011;8305;-33.882;151.134;2023-06-14T10:00:09;2.97;;;0.98;;
16391;SDS011;8305;-33.882;151.134;2023-06-14T10:02:42;2.28;;;0.90;;
16391;SDS011;8305;-33.882;151.134;2023-06-14T10:05:19;2.33;;;0.90;;
16391;SDS011;8305;-33.882;151.134;2023-06-14T10:07:52;2.40;;;0.75;;
16391;SDS011;8305;-33.882;151.134;2023-06-14T10:10:27;2.85;;;0.85;;
16391;SDS011;8305;-33.882;151.134;2023-06-14T10:12:59;4.20;;;1.20;;
16391;SDS011;8305;-33.882;151.134;2023-06-14T10:15:33;2.35;;;1.33;;
16391;SDS011;8305;-33.882;151.134;2023-06-14T10:18:09;2.30;;;1.33;;
16391;SDS011;8305;-33.882;151.134;2023-06-14T10:20:53;3.47;;;1.40;;
16391;SDS011;8305;-33.882;151.134;2023-06-14T10:23:31;3.25;;;1.30;;
16391;SDS011;8305;-33.882;151.134;2023-06-14T10:26:06;5.63;;;1.55;;
16391;SDS011;8305;-33.882;151.134;2023-06-14T10:28:37;2.50;;;1.40;;
16391;SDS011;8305;-33.882;151.134;2023-06-14T10:31:11;1.98;;;1.23;;
16391;SDS011;8305;-33.882;151.134;2023-06-14T10:33:48;4.60;;;1.30;;
16391;SDS011;8305;-33.882;151.134;2023-06-14T10:36:25;2.47;;;1.40;;
16391;SDS011;8305;-33.882;151.134;2023-06-14T10:38:57;3.63;;;1.30;;
16391;SDS011;8305;-33.882;151.134;2023-06-14T10:41:35;2.63;;;1.20;;
16391;SDS011;8305;-33.882;151.134;2023-06-14T10:47:06;2.38;;;1.20;;
16391;SDS011;8305;-33.882;151.134;2023-06-14T10:49:42;1.70;;;1.02;;
16391;SDS011;8305;-33.882;151.134;2023-06-14T10:52:15;1.60;;;1.00;;
16391;SDS011;8305;-33.882;151.134;2023-06-14T10:54:59;1.27;;;0.90;;
16391;SDS011;8305;-33.882;151.134;2023-06-14T10:57:33;3.08;;;1.20;;
16391;SDS011;8305;-33.882;151.134;2023-06-14T11:00:04;2.38;;;1.10;;
16391;SDS011;8305;-33.882;151.134;2023-06-14T11:06:01;2.58;;;0.80;;
16391;SDS011;8305;-33.882;151.134;2023-06-14T11:11:42;1.45;;;0.88;;
16391;SDS011;8305;-33.882;151.134;2023-06-14T11:14:13;3.70;;;1.13;;
16391;SDS011;8305;-33.882;151.134;2023-06-14T11:16:48;2.13;;;1.05;;
16391;SDS011;8305;-33.882;151.134;2023-06-14T11:19:19;2.60;;;1.00;;
16391;SDS011;8305;-33.882;151.134;2023-06-14T11:21:53;3.53;;;1.17;;
16391;SDS011;8305;-33.882;151.134;2023-06-14T11:24:24;1.83;;;0.95;;
16391;SDS011;8305;-33.882;151.134;2023-06-14T11:26:55;2.55;;;1.00;;
16391;SDS011;8305;-33.882;151.134;2023-06-14T11:29:28;2.55;;;0.90;;
16391;SDS011;8305;-33.882;151.134;2023-06-14T11:31:59;2.60;;;0.90;;
16391;SDS011;8305;-33.882;151.134;2023-06-14T11:34:31;2.53;;;1.10;;
16391;SDS011;8305;-33.882;151.134;2023-06-14T11:37:04;2.45;;;1.08;;
16391;SDS011;8305;-33.882;151.134;2023-06-14T11:39:35;3.13;;;1.00;;
16391;SDS011;8305;-33.882;151.134;2023-06-14T11:42:13;2.20;;;1.05;;
16391;SDS011;8305;-33.882;151.134;2023-06-14T11:44:46;3.60;;;1.10;;
16391;SDS011;8305;-33.882;151.134;2023-06-14T11:47:17;2.75;;;0.95;;
16391;SDS011;8305;-33.882;151.134;2023-06-14T11:49:48;2.53;;;1.00;;
16391;SDS011;8305;-33.882;151.134;2023-06-14T11:52:22;3.08;;;1.20;;
16391;SDS011;8305;-33.882;151.134;2023-06-14T11:54:53;1.13;;;0.82;;
16391;SDS011;8305;-33.882;151.134;2023-06-14T11:57:25;4.15;;;1.00;;
16391;SDS011;8305;-33.882;151.134;2023-06-14T11:59:57;3.38;;;1.00;;
16391;SDS011;8305;-33.882;151.134;2023-06-14T12:02:30;3.10;;;1.00;;
16391;SDS011;8305;-33.882;151.134;2023-06-14T12:05:04;3.72;;;0.90;;
16391;SDS011;8305;-33.882;151.134;2023-06-14T12:07:38;2.05;;;0.98;;
16391;SDS011;8305;-33.882;151.134;2023-06-14T12:10:11;3.38;;;0.80;;
16391;SDS011;8305;-33.882;151.134;2023-06-14T12:12:44;2.33;;;0.70;;
16391;SDS011;8305;-33.882;151.134;2023-06-14T12:15:15;3.85;;;0.85;;
16391;SDS011;8305;-33.882;151.134;2023-06-14T12:17:47;4.78;;;1.05;;
16391;SDS011;8305;-33.882;151.134;2023-06-14T12:20:19;4.15;;;0.98;;
16391;SDS011;8305;-33.882;151.134;2023-06-14T12:22:56;1.77;;;0.80;;
16391;SDS011;8305;-33.882;151.134;2023-06-14T12:25:29;2.42;;;0.70;;
16391;SDS011;8305;-33.882;151.134;2023-06-14T12:28:04;2.08;;;0.70;;
16391;SDS011;8305;-33.882;151.134;2023-06-14T12:30:36;2.85;;;0.93;;
16391;SDS011;8305;-33.882;151.134;2023-06-14T12:33:07;2.92;;;0.70;;
16391;SDS011;8305;-33.882;151.134;2023-06-14T12:35:38;4.43;;;0.90;;
16391;SDS011;8305;-33.882;151.134;2023-06-14T12:38:11;3.08;;;0.90;;
16391;SDS011;8305;-33.882;151.134;2023-06-14T12:40:43;3.72;;;0.80;;
16391;SDS011;8305;-33.882;151.134;2023-06-14T12:43:14;1.67;;;0.75;;
16391;SDS011;8305;-33.882;151.134;2023-06-14T12:45:45;2.33;;;0.80;;
16391;SDS011;8305;-33.882;151.134;2023-06-14T12:48:16;3.65;;;0.70;;
16391;SDS011;8305;-33.882;151.134;2023-06-14T12:50:48;4.90;;;0.90;;
16391;SDS011;8305;-33.882;151.134;2023-06-14T12:53:21;4.45;;;0.82;;
16391;SDS011;8305;-33.882;151.134;2023-06-14T12:55:52;1.67;;;0.70;;
16391;SDS011;8305;-33.882;151.134;2023-06-14T12:58:23;2.17;;;0.82;;
16391;SDS011;8305;-33.882;151.134;2023-06-14T13:00:54;2.40;;;0.60;;
16391;SDS011;8305;-33.882;151.134;2023-06-14T13:03:25;2.70;;;0.73;;
16391;SDS011;8305;-33.882;151.134;2023-06-14T13:05:57;2.10;;;0.70;;
16391;SDS011;8305;-33.882;151.134;2023-06-14T13:08:30;1.45;;;0.60;;
16391;SDS011;8305;-33.882;151.134;2023-06-14T13:11:01;1.45;;;0.52;;
16391;SDS011;8305;-33.882;151.134;2023-06-14T13:13:32;2.97;;;0.80;;
16391;SDS011;8305;-33.882;151.134;2023-06-14T13:16:03;4.05;;;0.65;;
16391;SDS011;8305;-33.882;151.134;2023-06-14T13:18:34;3.40;;;0.60;;
16391;SDS011;8305;-33.882;151.134;2023-06-14T13:21:05;2.53;;;0.80;;
16391;SDS011;8305;-33.882;151.134;2023-06-14T13:23:38;2.65;;;0.57;;
16391;SDS011;8305;-33.882;151.134;2023-06-14T13:26:09;1.05;;;0.70;;
16391;SDS011;8305;-33.882;151.134;2023-06-14T13:28:41;2.13;;;0.80;;
16391;SDS011;8305;-33.882;151.134;2023-06-14T13:31:12;1.23;;;0.50;;
16391;SDS011;8305;-33.882;151.134;2023-06-14T13:33:43;1.98;;;0.65;;
16391;SDS011;8305;-33.882;151.134;2023-06-14T13:36:14;3.05;;;0.80;;
16391;SDS011;8305;-33.882;151.134;2023-06-14T13:38:47;2.78;;;0.77;;
16391;SDS011;8305;-33.882;151.134;2023-06-14T13:41:19;2.30;;;0.55;;
16391;SDS011;8305;-33.882;151.134;2023-06-14T13:43:50;3.28;;;0.70;;
16391;SDS011;8305;-33.882;151.134;2023-06-14T13:46:21;2.38;;;0.77;;
16391;SDS011;8305;-33.882;151.134;2023-06-14T13:48:52;2.97;;;0.70;;
16391;SDS011;8305;-33.882;151.134;2023-06-14T13:51:23;3.78;;;0.90;;
16391;SDS011;8305;-33.882;151.134;2023-06-14T13:53:57;2.22;;;0.70;;
16391;SDS011;8305;-33.882;151.134;2023-06-14T13:56:28;2.67;;;0.80;;
16391;SDS011;8305;-33.882;151.134;2023-06-14T13:58:59;2.22;;;0.70;;
16391;SDS011;8305;-33.882;151.134;2023-06-14T14:01:30;2.70;;;0.70;;
16391;SDS011;8305;-33.882;151.134;2023-06-14T14:04:01;2.53;;;0.80;;
16391;SDS011;8305;-33.882;151.134;2023-06-14T14:06:32;2.83;;;0.90;;
16391;SDS011;8305;-33.882;151.134;2023-06-14T14:09:05;3.53;;;0.73;;
16391;SDS011;8305;-33.882;151.134;2023-06-14T14:11:37;3.72;;;0.82;;
16391;SDS011;8305;-33.882;151.134;2023-06-14T14:14:08;2.20;;;0.63;;
16391;SDS011;8305;-33.882;151.134;2023-06-14T14:16:39;4.15;;;0.95;;
16391;SDS011;8305;-33.882;151.134;2023-06-14T14:19:10;1.77;;;0.73;;
16391;SDS011;8305;-33.882;151.134;2023-06-14T14:21:41;2.05;;;0.70;;
16391;SDS011;8305;-33.882;151.134;2023-06-14T15:01:18;2.08;;;0.70;;
16391;SDS011;8305;-33.882;151.134;2023-06-14T15:03:49;3.65;;;0.90;;
16391;SDS011;8305;-33.882;151.134;2023-06-14T15:06:20;2.50;;;0.70;;
16391;SDS011;8305;-33.882;151.134;2023-06-14T15:08:51;5.57;;;0.90;;
16391;SDS011;8305;-33.882;151.134;2023-06-14T15:11:22;1.65;;;0.70;;
16391;SDS011;8305;-33.882;151.134;2023-06-14T15:13:53;2.42;;;0.70;;
16391;SDS011;8305;-33.882;151.134;2023-06-14T15:16:26;2.03;;;0.70;;
16391;SDS011;8305;-33.882;151.134;2023-06-14T15:18:57;2.28;;;0.90;;
16391;SDS011;8305;-33.882;151.134;2023-06-14T15:21:28;2.50;;;0.80;;
16391;SDS011;8305;-33.882;151.134;2023-06-14T15:23:59;1.55;;;0.65;;
16391;SDS011;8305;-33.882;151.134;2023-06-14T15:26:30;0.80;;;0.65;;
16391;SDS011;8305;-33.882;151.134;2023-06-14T15:29:01;3.15;;;0.98;;
16391;SDS011;8305;-33.882;151.134;2023-06-14T15:31:34;3.03;;;0.82;;
16391;SDS011;8305;-33.882;151.134;2023-06-14T15:34:05;1.48;;;0.60;;
16391;SDS011;8305;-33.882;151.134;2023-06-14T15:36:37;4.53;;;0.80;;